Time;durP1;ratioP1;P1;durP2;ratioP2;P2;SDS_P1;SDS_P2;PMS_P1;PMS_P2;Temp;Humidity;BMP_temperature;BMP_pressure;BME280_temperature;BME280_humidity;BME280_pressure;Samples;Min_cycle;Max_cycle;Signal;HPM_P1;HPM_P2
2021/12/23 00:01:41;;;;;;;30.95;16.90;;;-0.30;99.90;;;;;;5095747;28;20100;-70
2021/12/23 00:04:09;;;;;;;32.63;17.70;;;-0.40;99.90;;;;;;5112279;28;20122;-70
2021/12/23 00:06:35;;;;;;;26.20;16.63;;;-0.40;99.90;;;;;;5094884;28;20092;-69
2021/12/23 00:09:03;;;;;;;23.80;15.45;;;-0.40;99.90;;;;;;5113947;28;20119;-70
2021/12/23 00:11:29;;;;;;;27.90;17.42;;;-0.40;99.90;;;;;;5112140;28;20040;-70
2021/12/23 00:14:07;;;;;;;26.42;16.35;;;-0.40;99.90;;;;;;5113516;28;20480;-70
2021/12/23 00:16:45;;;;;;;29.42;16.95;;;-0.40;99.90;;;;;;5112081;28;20088;-70
2021/12/23 00:19:36;;;;;;;29.77;16.52;;;-0.40;99.90;;;;;;5114077;28;20043;-70
2021/12/23 00:24:49;;;;;;;22.85;16.23;;;-0.40;99.90;;;;;;5112285;28;20043;-71
2021/12/23 00:27:15;;;;;;;27.80;18.40;;;-0.30;99.90;;;;;;5113052;28;20044;-71
2021/12/23 00:29:41;;;;;;;28.90;18.00;;;-0.30;99.90;;;;;;5112369;28;20044;-70
2021/12/23 00:32:08;;;;;;;25.23;16.90;;;-0.30;99.90;;;;;;5096930;28;20414;-69
2021/12/23 00:34:38;;;;;;;27.40;17.17;;;-0.30;99.90;;;;;;5098963;28;20042;-71
2021/12/23 00:37:09;;;;;;;32.70;17.73;;;-0.30;99.90;;;;;;5115413;28;20110;-71
2021/12/23 00:39:35;;;;;;;29.20;16.73;;;-0.30;99.90;;;;;;5115966;28;20046;-70
2021/12/23 00:42:06;;;;;;;28.17;17.35;;;-0.30;99.90;;;;;;5115847;28;20035;-71
2021/12/23 00:44:34;;;;;;;28.05;17.23;;;-0.30;99.90;;;;;;5115663;28;20054;-70
2021/12/23 00:47:00;;;;;;;24.33;15.98;;;-0.40;99.90;;;;;;5116760;28;20036;-71
2021/12/23 00:49:26;;;;;;;27.73;17.52;;;-0.30;99.90;;;;;;5117012;28;20108;-71
2021/12/23 00:51:53;;;;;;;26.77;17.20;;;-0.30;99.90;;;;;;5115988;28;20058;-71
2021/12/23 00:54:19;;;;;;;26.48;15.73;;;-0.30;99.90;;;;;;5116807;28;20043;-71
2021/12/23 00:56:48;;;;;;;28.65;17.25;;;-0.30;99.90;;;;;;5115060;28;20090;-70
2021/12/23 00:59:14;;;;;;;29.88;15.38;;;-0.30;99.90;;;;;;5099143;28;20107;-71
2021/12/23 01:01:40;;;;;;;29.95;16.92;;;-0.30;99.90;;;;;;5116705;28;20475;-71
2021/12/23 01:04:05;;;;;;;31.95;18.02;;;-0.30;99.90;;;;;;5116923;28;20040;-70
2021/12/23 01:06:31;;;;;;;25.70;15.13;;;-0.30;99.90;;;;;;5116167;28;20403;-70
2021/12/23 01:08:57;;;;;;;28.95;16.70;;;-0.20;99.90;;;;;;5116782;28;20103;-71
2021/12/23 01:11:24;;;;;;;25.98;16.33;;;-0.20;99.90;;;;;;5116723;28;20509;-70
2021/12/23 01:14:02;;;;;;;29.88;17.38;;;-0.20;99.90;;;;;;5104361;28;20472;-71
2021/12/23 01:19:24;;;;;;;29.42;17.60;;;-0.10;99.90;;;;;;5059390;28;20044;-71
2021/12/23 01:21:49;;;;;;;29.27;16.80;;;-0.10;99.90;;;;;;5096323;28;20479;-70
2021/12/23 01:24:15;;;;;;;27.92;16.27;;;-0.10;99.90;;;;;;5096905;28;20046;-71
2021/12/23 01:26:41;;;;;;;26.05;15.85;;;-0.10;99.90;;;;;;5097121;28;20045;-71
2021/12/23 01:29:08;;;;;;;25.40;15.88;;;-0.10;99.90;;;;;;5096428;28;20044;-70
2021/12/23 01:31:34;;;;;;;26.98;15.73;;;-0.10;99.90;;;;;;5095613;28;20093;-71
2021/12/23 01:34:00;;;;;;;23.50;16.00;;;-0.10;99.90;;;;;;5097180;28;20043;-71
2021/12/23 01:36:26;;;;;;;27.58;17.23;;;-0.10;99.90;;;;;;5095521;28;20040;-71
2021/12/23 01:38:52;;;;;;;25.50;15.40;;;0.00;99.90;;;;;;5095025;28;20390;-70
2021/12/23 01:41:20;;;;;;;28.27;17.88;;;0.00;99.90;;;;;;5096110;28;20040;-71
2021/12/23 01:43:46;;;;;;;25.75;15.75;;;0.00;99.90;;;;;;5095950;28;20052;-71
2021/12/23 01:46:12;;;;;;;26.10;17.65;;;0.00;99.90;;;;;;5095409;28;20088;-70
2021/12/23 01:48:37;;;;;;;25.00;17.95;;;0.00;99.90;;;;;;5095522;28;20085;-70
2021/12/23 01:51:03;;;;;;;25.33;16.58;;;0.10;99.90;;;;;;5095450;28;20402;-70
2021/12/23 01:53:29;;;;;;;30.63;17.08;;;0.00;99.90;;;;;;5095514;28;20039;-71
2021/12/23 01:55:54;;;;;;;26.73;17.02;;;0.00;99.90;;;;;;5095507;28;20071;-71
2021/12/23 01:58:21;;;;;;;25.17;17.17;;;0.00;99.90;;;;;;5096473;28;20040;-70
2021/12/23 02:00:49;;;;;;;26.95;16.48;;;0.00;99.90;;;;;;5095412;28;20125;-71
2021/12/23 02:03:15;;;;;;;27.00;17.08;;;0.00;99.90;;;;;;5093781;28;20514;-70
2021/12/23 02:05:41;;;;;;;25.08;16.55;;;0.20;99.90;;;;;;5094762;28;20036;-71
2021/12/23 02:08:08;;;;;;;30.70;17.10;;;0.20;99.90;;;;;;5095162;28;20052;-70
2021/12/23 02:10:33;;;;;;;25.92;17.33;;;0.30;99.90;;;;;;5094975;28;20071;-70
2021/12/23 02:13:00;;;;;;;26.50;17.75;;;0.20;99.90;;;;;;5095143;28;20079;-68
2021/12/23 02:15:26;;;;;;;29.38;17.95;;;0.20;99.90;;;;;;5094894;28;20032;-69
2021/12/23 02:17:53;;;;;;;25.17;17.10;;;0.10;99.90;;;;;;5094516;28;20024;-69
2021/12/23 02:20:30;;;;;;;27.90;17.02;;;0.20;99.90;;;;;;5094632;28;20040;-69
2021/12/23 02:22:56;;;;;;;28.23;17.00;;;0.10;99.90;;;;;;5094814;28;20051;-68
2021/12/23 02:25:22;;;;;;;27.17;18.17;;;0.00;99.90;;;;;;5076562;28;20036;-69
2021/12/23 02:27:49;;;;;;;25.98;17.67;;;0.00;99.90;;;;;;5094176;28;20098;-69
2021/12/23 02:30:17;;;;;;;31.15;17.33;;;0.00;99.90;;;;;;5094476;28;20044;-70
2021/12/23 02:32:44;;;;;;;26.83;18.33;;;0.10;99.90;;;;;;5093150;28;20086;-70
2021/12/23 02:35:13;;;;;;;27.67;18.02;;;0.00;99.90;;;;;;5093289;28;20051;-69
2021/12/23 02:37:40;;;;;;;26.27;16.42;;;0.10;99.90;;;;;;5094115;28;20471;-70
2021/12/23 02:40:07;;;;;;;27.10;18.63;;;0.10;99.90;;;;;;5094466;28;20080;-70
2021/12/23 02:42:32;;;;;;;27.10;16.17;;;0.10;99.90;;;;;;5094386;28;20032;-69
2021/12/23 02:44:58;;;;;;;27.67;17.75;;;0.20;99.90;;;;;;5092988;28;20032;-69
2021/12/23 02:47:24;;;;;;;28.00;17.08;;;0.20;99.90;;;;;;5092530;28;20377;-69
2021/12/23 02:49:49;;;;;;;32.90;18.38;;;0.20;99.90;;;;;;5092748;28;20051;-70
2021/12/23 02:52:15;;;;;;;28.50;17.17;;;0.20;99.90;;;;;;5094539;28;20039;-70
2021/12/23 02:54:41;;;;;;;27.80;16.65;;;0.10;99.90;;;;;;5093404;28;20105;-70
2021/12/23 02:57:07;;;;;;;26.67;16.85;;;0.20;99.90;;;;;;5093647;28;20066;-70
2021/12/23 02:59:33;;;;;;;29.98;18.40;;;0.20;99.90;;;;;;5094256;28;20494;-70
2021/12/23 03:02:00;;;;;;;26.17;16.38;;;0.20;99.90;;;;;;5094069;28;20119;-70
2021/12/23 03:04:26;;;;;;;24.00;15.65;;;0.30;99.90;;;;;;5094001;28;20123;-70
2021/12/23 03:06:56;;;;;;;22.05;15.68;;;0.20;99.90;;;;;;5093569;28;20123;-69
2021/12/23 03:09:21;;;;;;;23.75;16.40;;;0.30;99.90;;;;;;5094420;28;20425;-69
2021/12/23 03:11:47;;;;;;;26.33;17.38;;;0.30;99.90;;;;;;5092610;28;20051;-70
2021/12/23 03:14:14;;;;;;;27.02;16.98;;;0.30;99.90;;;;;;5093760;28;20399;-70
2021/12/23 03:16:39;;;;;;;24.13;15.70;;;0.30;99.90;;;;;;5092405;28;20044;-70
2021/12/23 03:19:06;;;;;;;23.85;15.82;;;0.30;99.90;;;;;;5094059;28;20039;-70
2021/12/23 03:21:33;;;;;;;26.60;15.82;;;0.30;99.90;;;;;;5092457;28;20097;-70
2021/12/23 03:23:59;;;;;;;25.27;15.63;;;0.30;99.90;;;;;;5094080;28;20119;-70
2021/12/23 03:26:24;;;;;;;26.48;15.52;;;0.40;99.90;;;;;;5091987;28;20475;-70
2021/12/23 03:28:50;;;;;;;28.13;15.90;;;0.30;99.90;;;;;;5092294;28;20062;-70
2021/12/23 03:31:16;;;;;;;25.45;15.45;;;0.40;99.90;;;;;;5093989;28;20111;-69
2021/12/23 03:33:42;;;;;;;24.50;16.48;;;0.40;99.90;;;;;;5093558;28;20052;-68
2021/12/23 03:36:08;;;;;;;24.50;15.85;;;0.40;99.90;;;;;;5092176;28;20043;-70
2021/12/23 03:38:33;;;;;;;25.75;15.70;;;0.40;99.90;;;;;;5093670;28;20487;-70
2021/12/23 03:40:59;;;;;;;26.38;15.38;;;0.30;99.90;;;;;;5092179;28;20453;-70
2021/12/23 03:43:25;;;;;;;23.23;16.17;;;0.30;99.90;;;;;;5093384;28;20036;-70
2021/12/23 03:45:51;;;;;;;24.50;15.75;;;0.30;99.90;;;;;;5093090;28;20093;-70
2021/12/23 03:48:18;;;;;;;23.05;15.52;;;0.30;99.90;;;;;;5093504;28;20153;-69
2021/12/23 03:50:45;;;;;;;26.80;15.60;;;0.30;99.90;;;;;;5093598;28;20051;-70
2021/12/23 03:53:10;;;;;;;24.83;15.48;;;0.30;99.90;;;;;;5092027;28;20462;-70
2021/12/23 03:55:36;;;;;;;27.25;16.83;;;0.30;99.90;;;;;;5092158;28;20071;-70
2021/12/23 03:58:03;;;;;;;26.05;16.52;;;0.40;99.90;;;;;;5092125;28;20043;-69
2021/12/23 04:00:29;;;;;;;25.92;15.55;;;0.40;99.90;;;;;;5093302;28;20051;-69
2021/12/23 04:02:55;;;;;;;24.75;15.07;;;0.40;99.90;;;;;;5093237;28;20032;-70
2021/12/23 04:05:21;;;;;;;22.05;14.73;;;0.50;99.90;;;;;;5075718;28;20495;-69
2021/12/23 04:07:46;;;;;;;28.67;16.13;;;0.50;99.90;;;;;;5097305;28;20043;-70
2021/12/23 04:10:15;;;;;;;26.02;14.52;;;0.50;99.90;;;;;;5097594;28;20035;-69
2021/12/23 04:12:42;;;;;;;27.73;15.90;;;0.50;99.90;;;;;;5097242;28;20104;-70
2021/12/23 04:15:08;;;;;;;26.60;16.45;;;0.50;99.90;;;;;;5096245;28;20097;-70
2021/12/23 04:17:34;;;;;;;23.95;14.55;;;0.50;99.90;;;;;;5096769;28;20040;-69
2021/12/23 04:20:13;;;;;;;24.00;15.20;;;0.50;99.90;;;;;;5096060;28;20456;-70
2021/12/23 04:22:39;;;;;;;27.20;15.73;;;0.50;99.90;;;;;;5096183;28;20134;-70
2021/12/23 04:25:05;;;;;;;26.08;16.10;;;0.50;99.90;;;;;;5095675;28;20044;-69
2021/12/23 04:27:31;;;;;;;24.70;16.20;;;0.50;99.90;;;;;;5096823;28;20040;-70
2021/12/23 04:29:57;;;;;;;26.40;16.95;;;0.50;99.90;;;;;;5097157;28;20088;-70
2021/12/23 04:32:22;;;;;;;24.90;16.17;;;0.50;99.90;;;;;;5096039;28;20040;-70
2021/12/23 04:34:48;;;;;;;25.88;16.15;;;0.40;99.90;;;;;;5097139;28;20115;-70
2021/12/23 04:37:13;;;;;;;27.35;16.90;;;0.40;99.90;;;;;;5096277;28;20123;-70
2021/12/23 04:39:40;;;;;;;26.95;16.00;;;0.40;99.90;;;;;;5095756;28;20036;-70
2021/12/23 04:42:05;;;;;;;25.27;15.77;;;0.50;99.90;;;;;;5096649;28;20127;-70
2021/12/23 04:44:31;;;;;;;25.05;15.75;;;0.50;99.90;;;;;;5096710;28;20122;-69
2021/12/23 04:46:57;;;;;;;26.65;16.63;;;0.50;99.90;;;;;;5095154;28;20491;-70
2021/12/23 04:49:23;;;;;;;23.00;15.77;;;0.50;99.90;;;;;;5078444;28;20040;-70
2021/12/23 04:51:49;;;;;;;25.20;15.40;;;0.60;99.90;;;;;;5096483;28;20051;-70
2021/12/23 04:54:15;;;;;;;26.17;16.15;;;0.60;99.90;;;;;;5095303;28;20043;-70
2021/12/23 04:56:41;;;;;;;22.75;16.73;;;0.70;99.90;;;;;;5095433;28;20040;-70
2021/12/23 04:59:06;;;;;;;26.65;15.57;;;0.60;99.90;;;;;;5096879;28;20043;-70
2021/12/23 05:01:33;;;;;;;25.02;16.45;;;0.60;99.90;;;;;;5095074;28;20036;-69
2021/12/23 05:03:59;;;;;;;23.85;15.07;;;0.60;99.90;;;;;;5095295;28;20040;-69
2021/12/23 05:06:25;;;;;;;27.88;16.63;;;0.60;99.90;;;;;;5094888;28;20075;-69
2021/12/23 05:08:51;;;;;;;26.90;16.42;;;0.60;99.90;;;;;;5096940;28;20451;-70
2021/12/23 05:11:17;;;;;;;25.80;16.45;;;0.60;99.90;;;;;;5096669;28;20039;-69
2021/12/23 05:13:45;;;;;;;24.73;16.00;;;0.60;99.90;;;;;;5096300;28;20475;-69
2021/12/23 05:16:10;;;;;;;23.90;15.65;;;0.60;99.90;;;;;;5096018;28;20105;-69
2021/12/23 05:18:36;;;;;;;27.08;17.38;;;0.50;99.90;;;;;;5096415;28;20036;-69
2021/12/23 05:21:05;;;;;;;24.25;15.15;;;0.60;99.90;;;;;;5097574;28;20036;-69
2021/12/23 05:23:31;;;;;;;30.85;16.80;;;0.50;99.90;;;;;;5077930;28;20123;-69
2021/12/23 05:25:57;;;;;;;22.83;15.32;;;0.50;99.90;;;;;;5094537;28;20126;-70
2021/12/23 05:28:22;;;;;;;25.65;16.35;;;0.60;99.90;;;;;;5096160;28;20035;-70
2021/12/23 05:30:48;;;;;;;24.77;16.90;;;0.60;99.90;;;;;;5094845;28;20039;-70
2021/12/23 05:33:14;;;;;;;22.80;16.10;;;0.60;99.90;;;;;;5096230;28;20089;-70
2021/12/23 05:35:40;;;;;;;28.63;16.85;;;0.60;99.90;;;;;;5094050;28;20067;-70
2021/12/23 05:38:05;;;;;;;27.73;17.10;;;0.70;99.90;;;;;;5094224;28;20048;-70
2021/12/23 05:40:32;;;;;;;27.05;17.38;;;0.70;99.90;;;;;;5095717;28;20040;-70
2021/12/23 05:42:58;;;;;;;25.48;16.30;;;0.70;99.90;;;;;;5095707;28;20048;-70
2021/12/23 05:45:24;;;;;;;26.98;15.95;;;0.60;99.90;;;;;;5095822;28;20035;-71
2021/12/23 05:47:51;;;;;;;29.85;17.52;;;0.70;99.90;;;;;;5094216;28;20160;-70
2021/12/23 05:50:18;;;;;;;22.85;15.73;;;0.60;99.90;;;;;;5095441;28;20036;-70
2021/12/23 05:52:44;;;;;;;27.17;16.55;;;0.70;99.90;;;;;;5095436;28;20054;-70
2021/12/23 05:55:12;;;;;;;25.17;16.88;;;0.70;99.90;;;;;;5095291;28;20028;-70
2021/12/23 05:57:39;;;;;;;27.55;17.08;;;0.70;99.90;;;;;;5095194;28;20032;-70
2021/12/23 06:00:09;;;;;;;28.50;16.23;;;0.70;99.90;;;;;;5094054;28;20501;-70
2021/12/23 06:02:35;;;;;;;25.83;17.00;;;0.70;99.90;;;;;;5096014;28;20143;-70
2021/12/23 06:05:01;;;;;;;26.77;17.45;;;0.70;99.90;;;;;;5095577;28;20550;-70
2021/12/23 06:07:26;;;;;;;27.92;16.33;;;0.70;99.90;;;;;;5094010;28;20048;-70
2021/12/23 06:09:52;;;;;;;29.95;16.95;;;0.70;99.90;;;;;;5095459;28;20369;-70
2021/12/23 06:12:17;;;;;;;27.20;16.48;;;0.70;99.90;;;;;;5094989;28;20441;-70
2021/12/23 06:14:43;;;;;;;24.85;16.27;;;0.70;99.90;;;;;;5095271;28;20067;-70
2021/12/23 06:17:09;;;;;;;27.33;17.27;;;0.80;99.90;;;;;;5095298;28;20040;-70
2021/12/23 06:19:34;;;;;;;28.75;17.67;;;0.80;99.90;;;;;;5095312;28;20044;-70
2021/12/23 06:22:00;;;;;;;28.55;16.05;;;0.80;99.90;;;;;;5095449;28;20044;-70
2021/12/23 06:24:25;;;;;;;25.15;17.45;;;0.70;99.90;;;;;;5095653;28;20036;-70
2021/12/23 06:26:51;;;;;;;24.98;16.95;;;0.80;99.90;;;;;;5095329;28;20483;-70
2021/12/23 06:29:17;;;;;;;26.92;16.00;;;0.90;99.90;;;;;;5094543;28;20044;-70
2021/12/23 06:31:42;;;;;;;27.80;16.98;;;0.90;99.90;;;;;;5094928;28;20046;-70
2021/12/23 06:34:08;;;;;;;30.30;18.85;;;0.90;99.90;;;;;;5094708;28;20044;-70
2021/12/23 06:36:34;;;;;;;27.75;15.80;;;0.90;99.90;;;;;;5094125;28;20067;-70
2021/12/23 06:38:59;;;;;;;26.05;17.67;;;0.90;99.90;;;;;;5094295;28;20097;-70
2021/12/23 06:41:25;;;;;;;28.95;17.45;;;0.90;99.90;;;;;;5096629;28;20391;-70
2021/12/23 06:43:51;;;;;;;31.08;19.08;;;0.90;99.90;;;;;;5096841;28;20035;-70
2021/12/23 06:46:16;;;;;;;29.38;17.42;;;0.80;99.90;;;;;;5094641;28;20052;-70
2021/12/23 06:48:42;;;;;;;29.00;18.40;;;0.80;99.90;;;;;;5093685;28;20044;-70
2021/12/23 06:51:07;;;;;;;27.38;15.95;;;0.90;99.90;;;;;;5094838;28;20059;-70
2021/12/23 06:53:33;;;;;;;29.38;18.38;;;0.80;99.90;;;;;;5094330;28;20039;-70
2021/12/23 06:56:00;;;;;;;27.08;18.20;;;0.90;99.90;;;;;;5093791;28;20040;-70
2021/12/23 06:58:26;;;;;;;29.23;18.50;;;0.90;99.90;;;;;;5094297;28;20051;-70
2021/12/23 07:00:53;;;;;;;27.15;17.27;;;0.90;99.90;;;;;;5094338;28;20036;-70
2021/12/23 07:03:18;;;;;;;27.80;18.02;;;0.90;99.90;;;;;;5094036;28;20113;-70
2021/12/23 07:05:44;;;;;;;30.70;17.20;;;0.90;99.90;;;;;;5093570;28;20036;-71
2021/12/23 07:08:25;;;;;;;28.08;18.00;;;0.90;99.90;;;;;;5092543;28;20055;-71
2021/12/23 07:10:51;;;;;;;29.50;18.35;;;0.90;99.90;;;;;;5094332;28;20079;-71
2021/12/23 07:13:17;;;;;;;31.23;20.85;;;0.90;99.90;;;;;;5092649;28;20611;-70
2021/12/23 07:15:43;;;;;;;29.77;19.90;;;1.00;99.90;;;;;;5093553;28;20047;-71
2021/12/23 07:18:08;;;;;;;33.28;20.20;;;0.90;99.90;;;;;;5093801;28;20071;-70
2021/12/23 07:20:34;;;;;;;30.58;18.85;;;0.90;99.90;;;;;;5093780;28;20122;-71
2021/12/23 07:23:00;;;;;;;35.10;20.70;;;1.00;99.90;;;;;;5094270;28;20036;-71
2021/12/23 07:25:26;;;;;;;35.97;22.13;;;0.90;99.90;;;;;;5092400;28;20111;-71
2021/12/23 07:27:52;;;;;;;32.17;19.85;;;0.90;99.90;;;;;;5093716;28;20048;-70
2021/12/23 07:30:20;;;;;;;33.53;20.58;;;0.90;99.90;;;;;;5093757;28;20068;-70
2021/12/23 07:32:48;;;;;;;32.35;20.92;;;0.90;99.90;;;;;;5092320;28;20050;-71
2021/12/23 07:35:14;;;;;;;35.25;21.60;;;0.90;99.90;;;;;;5093759;28;20090;-71
2021/12/23 07:37:40;;;;;;;32.70;19.55;;;0.90;99.90;;;;;;5092921;28;20039;-71
2021/12/23 07:40:07;;;;;;;36.90;21.98;;;0.90;99.90;;;;;;5093536;28;20043;-71
2021/12/23 07:42:34;;;;;;;33.42;20.02;;;0.90;99.90;;;;;;5093603;28;20036;-71
2021/12/23 07:45:01;;;;;;;31.33;21.40;;;0.90;99.90;;;;;;5093452;28;20047;-70
2021/12/23 07:47:28;;;;;;;37.90;21.33;;;0.90;99.90;;;;;;5091628;28;20048;-70
2021/12/23 07:49:54;;;;;;;34.15;21.50;;;0.90;99.90;;;;;;5092236;28;20483;-71
2021/12/23 07:52:21;;;;;;;34.85;20.70;;;0.90;99.90;;;;;;5092242;28;20040;-70
2021/12/23 07:54:47;;;;;;;38.42;21.33;;;0.90;99.90;;;;;;5093360;28;20483;-71
2021/12/23 07:57:12;;;;;;;34.38;21.70;;;1.00;99.90;;;;;;5093169;28;20044;-70
2021/12/23 07:59:38;;;;;;;33.67;22.20;;;0.90;99.90;;;;;;5093311;28;20029;-70
2021/12/23 08:02:04;;;;;;;35.55;20.85;;;0.90;99.90;;;;;;5091857;28;20083;-70
2021/12/23 08:04:30;;;;;;;36.63;22.08;;;0.90;99.90;;;;;;5093618;28;20036;-69
2021/12/23 08:06:57;;;;;;;33.33;19.90;;;0.90;99.90;;;;;;5096580;28;20039;-70
2021/12/23 08:09:25;;;;;;;35.50;22.38;;;0.90;99.90;;;;;;5102587;28;20487;-70
2021/12/23 08:11:51;;;;;;;35.78;21.13;;;0.90;99.90;;;;;;5107393;28;20454;-70
2021/12/23 08:14:17;;;;;;;31.13;19.67;;;1.00;99.90;;;;;;5113275;28;20059;-70
2021/12/23 08:16:43;;;;;;;33.55;21.38;;;1.00;99.90;;;;;;5113350;28;20035;-70
2021/12/23 08:19:10;;;;;;;33.10;21.33;;;1.00;99.90;;;;;;5112530;28;20119;-70
2021/12/23 08:21:35;;;;;;;33.97;21.42;;;1.00;99.90;;;;;;5113501;28;20396;-70
2021/12/23 08:24:01;;;;;;;32.25;19.95;;;0.90;99.90;;;;;;5106469;28;20048;-70
2021/12/23 08:26:29;;;;;;;34.92;21.60;;;0.90;99.90;;;;;;5110320;28;20047;-70
2021/12/23 08:28:57;;;;;;;39.17;22.27;;;0.90;99.90;;;;;;5104287;28;20046;-71
2021/12/23 08:31:24;;;;;;;36.30;21.90;;;1.00;99.90;;;;;;5101101;28;20107;-71
2021/12/23 08:33:50;;;;;;;32.72;21.05;;;1.00;99.90;;;;;;5091675;28;20039;-70
2021/12/23 08:36:16;;;;;;;38.22;22.65;;;1.00;99.90;;;;;;5092488;28;20044;-70
2021/12/23 08:38:43;;;;;;;36.63;22.48;;;0.90;99.90;;;;;;5093396;28;20040;-70
2021/12/23 08:41:09;;;;;;;36.00;21.02;;;1.00;99.90;;;;;;5092828;28;20044;-70
2021/12/23 08:43:35;;;;;;;39.15;21.65;;;1.00;99.90;;;;;;5091723;28;20044;-70
2021/12/23 08:46:02;;;;;;;35.22;22.55;;;1.00;99.90;;;;;;5091440;28;20043;-71
2021/12/23 08:48:27;;;;;;;31.45;21.15;;;1.00;99.90;;;;;;5092934;28;20040;-70
2021/12/23 08:50:54;;;;;;;40.03;23.17;;;1.00;99.90;;;;;;5091506;28;20568;-70
2021/12/23 08:53:19;;;;;;;33.88;21.55;;;1.00;99.90;;;;;;5094814;28;20093;-70
2021/12/23 08:55:45;;;;;;;38.70;23.13;;;1.00;99.90;;;;;;5096921;28;20399;-70
2021/12/23 08:58:11;;;;;;;35.40;23.00;;;1.00;99.90;;;;;;5096384;28;20115;-70
2021/12/23 09:00:38;;;;;;;37.75;22.67;;;1.00;99.90;;;;;;5095085;28;20039;-70
2021/12/23 09:03:06;;;;;;;34.95;21.38;;;1.00;99.90;;;;;;5095314;28;20032;-70
2021/12/23 09:05:33;;;;;;;38.92;22.75;;;1.00;99.90;;;;;;5095013;28;20506;-69
2021/12/23 09:07:59;;;;;;;43.72;22.85;;;1.00;99.90;;;;;;5096169;28;20118;-70
2021/12/23 09:10:25;;;;;;;39.97;23.40;;;1.00;99.90;;;;;;5096136;28;20120;-70
2021/12/23 09:12:51;;;;;;;39.25;22.42;;;1.00;99.90;;;;;;5096018;28;20044;-70
2021/12/23 09:15:18;;;;;;;37.13;21.98;;;1.00;99.90;;;;;;5094846;28;20050;-70
2021/12/23 09:17:43;;;;;;;35.17;22.00;;;1.00;99.90;;;;;;5096460;28;20040;-70
2021/12/23 09:20:13;;;;;;;39.00;24.50;;;1.10;99.90;;;;;;5096962;28;20047;-70
2021/12/23 09:22:39;;;;;;;36.88;22.20;;;1.00;99.90;;;;;;5094645;28;20540;-70
2021/12/23 09:25:11;;;;;;;38.35;22.90;;;1.10;99.90;;;;;;5095798;28;20127;-69
2021/12/23 09:27:55;;;;;;;35.78;22.00;;;1.00;99.90;;;;;;5094196;28;20051;-70
2021/12/23 09:33:05;;;;;;;40.08;24.13;;;1.10;99.90;;;;;;5098644;28;20044;-70
2021/12/23 09:35:32;;;;;;;37.78;22.38;;;1.10;99.90;;;;;;5095323;28;20036;-70
2021/12/23 09:37:59;;;;;;;41.92;24.63;;;1.10;99.90;;;;;;5094320;28;20052;-69
2021/12/23 09:40:29;;;;;;;38.50;23.75;;;1.10;99.90;;;;;;5077755;28;20092;-69
2021/12/23 09:42:57;;;;;;;42.05;24.10;;;1.20;99.90;;;;;;5094364;28;20404;-69
2021/12/23 09:45:23;;;;;;;40.03;24.25;;;1.20;99.90;;;;;;5094600;28;20555;-69
2021/12/23 09:47:49;;;;;;;38.65;23.45;;;1.20;99.90;;;;;;5094718;28;20048;-69
2021/12/23 09:50:31;;;;;;;42.30;24.50;;;1.20;99.90;;;;;;5095305;28;20158;-69
2021/12/23 09:52:59;;;;;;;41.15;23.35;;;1.20;99.90;;;;;;5095597;28;20079;-69
2021/12/23 09:55:26;;;;;;;40.72;25.45;;;1.10;99.90;;;;;;5099933;28;20044;-70
2021/12/23 09:57:54;;;;;;;47.30;26.88;;;1.10;99.90;;;;;;5106444;28;20402;-69
2021/12/23 10:00:22;;;;;;;47.63;25.13;;;1.10;99.90;;;;;;5104385;28;20040;-70
2021/12/23 10:02:48;;;;;;;45.47;27.02;;;1.10;99.90;;;;;;5102925;28;20568;-69
2021/12/23 10:05:18;;;;;;;51.63;29.02;;;1.10;99.90;;;;;;5105699;28;20039;-69
2021/12/23 10:07:46;;;;;;;48.88;28.10;;;1.10;99.90;;;;;;5103999;28;20036;-70
2021/12/23 10:11:24;;;;;;;44.83;26.77;;;1.10;99.90;;;;;;5104128;28;20074;-70
2021/12/23 10:26:53;;;;;;;51.65;28.60;;;1.10;99.90;;;;;;5091596;28;20043;-70
2021/12/23 10:38:34;;;;;;;54.92;28.65;;;1.20;99.90;;;;;;5114694;28;20043;-69
2021/12/23 10:41:13;;;;;;;58.80;30.80;;;1.20;99.90;;;;;;5114963;28;20071;-69
2021/12/23 10:43:45;;;;;;;53.88;29.10;;;1.20;99.90;;;;;;5113829;28;20044;-70
2021/12/23 10:46:25;;;;;;;56.17;31.52;;;1.20;99.90;;;;;;5114525;28;20039;-68
2021/12/23 10:49:09;;;;;;;54.95;30.67;;;1.20;99.90;;;;;;5114206;28;20096;-70
2021/12/23 10:58:16;;;;;;;52.00;29.98;;;1.30;99.90;;;;;;5094568;28;20048;-69
2021/12/23 11:00:29;;;;;;;67.53;35.05;;;1.30;99.90;;;;;;5094512;28;20073;-68
2021/12/23 11:03:26;;;;;;;60.65;32.13;;;1.40;99.90;;;;;;5095204;28;20403;-69
2021/12/23 11:06:19;;;;;;;60.05;35.17;;;1.40;99.90;;;;;;5094716;28;20043;-69
2021/12/23 11:39:33;;;;;;;71.10;37.83;;;1.30;99.90;;;;;;5092561;28;20048;-69
2021/12/23 11:42:16;;;;;;;64.63;35.05;;;1.30;99.90;;;;;;5093907;28;20039;-70
2021/12/23 11:44:45;;;;;;;64.60;35.63;;;1.40;99.90;;;;;;5095987;28;20096;-70
2021/12/23 11:47:14;;;;;;;65.03;33.97;;;1.40;99.90;;;;;;5102150;28;20050;-70
2021/12/23 11:49:43;;;;;;;65.15;33.50;;;1.40;99.90;;;;;;5093050;28;20046;-69
2021/12/23 11:52:09;;;;;;;68.03;37.05;;;1.40;99.90;;;;;;5092020;28;20549;-69
2021/12/23 11:54:38;;;;;;;64.05;35.08;;;1.40;99.90;;;;;;5093508;28;20036;-68
2021/12/23 11:57:14;;;;;;;68.60;36.40;;;1.40;99.90;;;;;;5091668;28;20052;-69
2021/12/23 11:59:44;;;;;;;68.90;34.70;;;1.40;99.90;;;;;;5092123;28;20503;-68
2021/12/23 12:02:18;;;;;;;76.13;38.25;;;1.50;99.90;;;;;;5093468;28;20119;-69
2021/12/23 12:04:45;;;;;;;70.05;36.63;;;1.30;99.90;;;;;;5093424;28;20097;-70
2021/12/23 12:07:16;;;;;;;75.78;37.35;;;1.40;99.90;;;;;;5092760;28;20395;-71
2021/12/23 12:10:03;;;;;;;66.90;36.45;;;1.30;99.90;;;;;;5092222;28;20040;-71
2021/12/23 12:12:30;;;;;;;68.47;37.05;;;1.40;99.90;;;;;;5091801;28;20040;-71
2021/12/23 12:14:57;;;;;;;73.32;37.03;;;1.30;99.90;;;;;;5093692;28;20032;-71
2021/12/23 12:17:26;;;;;;;65.28;35.20;;;1.30;99.90;;;;;;5092866;28;20096;-71
2021/12/23 12:20:13;;;;;;;79.75;39.03;;;1.40;99.90;;;;;;5092134;28;20085;-71
2021/12/23 12:22:45;;;;;;;74.25;37.08;;;1.40;99.90;;;;;;5093206;28;20055;-71
2021/12/23 12:25:24;;;;;;;74.38;37.10;;;1.30;99.90;;;;;;5102672;28;20395;-71
2021/12/23 12:27:51;;;;;;;73.07;37.67;;;1.40;99.90;;;;;;5109222;28;20067;-71
2021/12/23 12:30:21;;;;;;;69.72;35.45;;;1.40;99.90;;;;;;5095728;28;20484;-71
2021/12/23 12:32:47;;;;;;;73.03;37.65;;;1.40;99.90;;;;;;5097209;28;20032;-71
2021/12/23 12:35:20;;;;;;;77.57;40.38;;;1.40;99.90;;;;;;5095415;28;20093;-71
2021/12/23 12:37:50;;;;;;;71.05;37.45;;;1.50;99.90;;;;;;5096910;28;20047;-71
2021/12/23 12:40:16;;;;;;;79.53;38.85;;;1.50;99.90;;;;;;5095769;28;20055;-71
2021/12/23 12:42:46;;;;;;;65.70;34.33;;;1.50;99.90;;;;;;5095665;28;20054;-70
2021/12/23 12:45:23;;;;;;;59.90;33.33;;;1.50;99.90;;;;;;5095689;28;20071;-71
2021/12/23 12:47:54;;;;;;;65.53;35.58;;;1.50;99.90;;;;;;5096336;28;20036;-71
2021/12/23 12:50:28;;;;;;;69.47;34.60;;;1.60;99.90;;;;;;5096771;28;20046;-71
2021/12/23 12:53:00;;;;;;;71.88;36.08;;;1.60;99.90;;;;;;5097034;28;20032;-71
2021/12/23 12:55:26;;;;;;;69.13;34.28;;;1.60;99.90;;;;;;5096442;28;20039;-70
2021/12/23 12:57:55;;;;;;;73.72;37.45;;;1.60;99.90;;;;;;5096131;28;20040;-70
2021/12/23 13:00:35;;;;;;;71.25;38.33;;;1.60;99.90;;;;;;5096216;28;20035;-70
2021/12/23 13:03:14;;;;;;;72.07;38.17;;;1.60;99.90;;;;;;5096268;28;20550;-71
2021/12/23 13:05:42;;;;;;;73.07;37.58;;;1.60;99.90;;;;;;5096350;28;20043;-70
2021/12/23 13:08:20;;;;;;;69.45;36.40;;;1.60;99.90;;;;;;5096280;28;20040;-70
2021/12/23 13:10:48;;;;;;;68.80;36.67;;;1.60;99.90;;;;;;5095061;28;20044;-70
2021/12/23 13:13:32;;;;;;;70.35;36.63;;;1.60;99.90;;;;;;5096360;28;20115;-70
2021/12/23 13:16:11;;;;;;;73.40;38.00;;;1.60;99.90;;;;;;5096097;28;20044;-70
2021/12/23 13:18:36;;;;;;;66.97;34.70;;;1.60;99.90;;;;;;5094773;28;20096;-70
2021/12/23 13:21:05;;;;;;;70.90;38.42;;;1.70;99.90;;;;;;5095080;28;20044;-70
2021/12/23 13:23:43;;;;;;;74.97;37.05;;;1.70;99.90;;;;;;5094826;28;20094;-71
2021/12/23 13:26:12;;;;;;;77.90;38.28;;;1.70;99.90;;;;;;5095830;28;20040;-70
2021/12/23 13:28:43;;;;;;;75.07;35.67;;;1.70;99.90;;;;;;5096533;28;20036;-71
2021/12/23 13:31:17;;;;;;;68.43;35.92;;;1.70;99.90;;;;;;5095948;28;20075;-70
2021/12/23 13:33:55;;;;;;;69.93;35.42;;;1.70;99.90;;;;;;5095810;28;20118;-70
2021/12/23 13:36:28;;;;;;;70.55;35.47;;;1.70;99.90;;;;;;5094035;28;20055;-70
2021/12/23 13:38:56;;;;;;;;;;;1.70;99.90;;;;;;5095588;28;20040;-70
2021/12/23 13:41:28;;;;;;;68.93;37.28;;;1.70;99.90;;;;;;5095655;28;20010;-71
2021/12/23 13:44:01;;;;;;;77.35;38.53;;;1.60;99.90;;;;;;5094688;28;20109;-69
2021/12/23 13:46:32;;;;;;;76.75;38.53;;;1.60;99.90;;;;;;5095291;28;20470;-68
2021/12/23 13:49:02;;;;;;;78.72;38.63;;;1.70;99.90;;;;;;5095523;28;20112;-68